Time;durP1;ratioP1;P1;durP2;ratioP2;P2;SDS_P1;SDS_P2;PMS_P1;PMS_P2;Temp;Humidity;BMP_temperature;BMP_pressure;BME280_temperature;BME280_humidity;BME280_pressure;Samples;Min_cycle;Max_cycle;Signal;HPM_P1;HPM_P2
2022/03/18 00:00:32;;;;;;;;;;;;;;;;;;5023246;28;19975;-83
2022/03/18 00:03:06;;;;;;;;;;;;;;;;;;4989402;28;19929;-83
2022/03/18 00:05:34;;;;;;;;;;;;;;;;;;4985091;28;20008;-83
2022/03/18 00:08:20;;;;;;;;;;;;;;;;;;4961079;28;20066;-83
2022/03/18 00:10:46;;;;;;;;;;;;;;;;;;4976824;28;20039;-84
2022/03/18 00:13:14;;;;;;;;;;;;;;;;;;4960840;28;19922;-83
2022/03/18 00:15:41;;;;;;;;;;;;;;;;;;4979661;28;19929;-84
2022/03/18 00:18:08;;;;;;;;;;;;;;;;;;4962723;28;19972;-84
2022/03/18 00:20:50;;;;;;;;;;;;;;;;;;4982077;28;19940;-83
2022/03/18 00:23:17;;;;;;;;;;;;;;;;;;4973686;28;19929;-83
2022/03/18 00:25:43;;;;;;;;;;;;;;;;;;4957919;28;19922;-83
2022/03/18 00:28:16;;;;;;;;;;;;;;;;;;4959409;28;19933;-83
2022/03/18 00:30:43;;;;;;;;;;;;;;;;;;4974707;28;20443;-84
2022/03/18 00:33:10;;;;;;;;;;;;;;;;;;4957528;28;19925;-85
2022/03/18 00:35:37;;;;;;;;;;;;;;;;;;4995030;28;19933;-84
2022/03/18 00:38:04;;;;;;;;;;;;;;;;;;4996373;28;19921;-84
2022/03/18 00:40:31;;;;;;;;;;;;;;;;;;4997074;28;20410;-84
2022/03/18 00:43:00;;;;;;;;;;;;;;;;;;4994767;28;21581;-84
2022/03/18 00:45:29;;;;;;;;;;;;;;;;;;4999244;28;19948;-84
2022/03/18 00:53:49;;;;;;;;;;;;;;;;;;5013178;28;20465;-84
2022/03/18 00:56:35;;;;;;;;;;;;;;;;;;4999485;28;19923;-84
2022/03/18 00:59:02;;;;;;;;;;;;;;;;;;5040491;28;19976;-84
2022/03/18 01:01:30;;;;;;;;;;;;;;;;;;5067818;28;20527;-84
2022/03/18 01:03:58;;;;;;;;;;;;;;;;;;5071487;28;19924;-84
2022/03/18 01:06:24;;;;;;;;;;;;;;;;;;5074049;28;19986;-84
2022/03/18 01:08:51;;;;;;;;;;;;;;;;;;5068999;28;19967;-83
2022/03/18 01:11:18;;;;;;;;;;;;;;;;;;5051022;28;19928;-84
2022/03/18 01:13:44;;;;;;;;;;;;;;;;;;5056920;28;19928;-84
2022/03/18 01:16:12;;;;;;;;;;;;;;;;;;5055233;28;19924;-84
2022/03/18 01:18:39;;;;;;;;;;;;;;;;;;5055040;28;19920;-84
2022/03/18 01:21:05;;;;;;;;;;;;;;;;;;5053524;28;20294;-84
2022/03/18 01:23:31;;;;;;;;;;;;;;;;;;5071160;28;19924;-84
2022/03/18 01:25:58;;;;;;;;;;;;;;;;;;5055218;28;20125;-84
2022/03/18 01:28:27;;;;;;;;;;;;;;;;;;5059281;28;20421;-84
2022/03/18 01:30:55;;;;;;;;;;;;;;;;;;5071227;28;20429;-84
2022/03/18 01:33:39;;;;;;;;;;;;;;;;;;5031212;28;20532;-84
2022/03/18 01:36:06;;;;;;;;;;;;;;;;;;5016100;28;20856;-84
2022/03/18 01:38:33;;;;;;;;;;;;;;;;;;5005278;28;19935;-84
2022/03/18 01:41:00;;;;;;;;;;;;;;;;;;4998089;28;19933;-84
2022/03/18 01:43:27;;;;;;;;;;;;;;;;;;5018139;28;19929;-84
2022/03/18 01:45:54;;;;;;;;;;;;;;;;;;5018491;28;20277;-84
2022/03/18 01:48:21;;;;;;;;;;;;;;;;;;5016706;28;20026;-85
2022/03/18 01:50:48;;;;;;;;;;;;;;;;;;5016236;28;19953;-84
2022/03/18 01:53:16;;;;;;;;;;;;;;;;;;5018794;28;19924;-84
2022/03/18 01:55:42;;;;;;;;;;;;;;;;;;5013243;28;19924;-84
2022/03/18 01:58:09;;;;;;;;;;;;;;;;;;5026535;28;20073;-84
2022/03/18 02:00:35;;;;;;;;;;;;;;;;;;5007415;28;20312;-84
2022/03/18 02:03:02;;;;;;;;;;;;;;;;;;5022280;28;19936;-84
2022/03/18 02:05:30;;;;;;;;;;;;;;;;;;5067361;28;19928;-84
2022/03/18 02:07:58;;;;;;;;;;;;;;;;;;5071470;28;20662;-84
2022/03/18 02:10:25;;;;;;;;;;;;;;;;;;5059524;28;19921;-83
2022/03/18 02:12:53;;;;;;;;;;;;;;;;;;5076829;28;20403;-83
2022/03/18 02:15:20;;;;;;;;;;;;;;;;;;5064399;28;19967;-83
2022/03/18 02:17:47;;;;;;;;;;;;;;;;;;5075246;28;19928;-84
2022/03/18 02:20:15;;;;;;;;;;;;;;;;;;5059876;28;19928;-84
2022/03/18 02:22:42;;;;;;;;;;;;;;;;;;5059641;28;19925;-84
2022/03/18 02:25:09;;;;;;;;;;;;;;;;;;5072203;28;20366;-84
2022/03/18 02:27:37;;;;;;;;;;;;;;;;;;5053190;28;19923;-84
2022/03/18 02:30:03;;;;;;;;;;;;;;;;;;5070682;28;19924;-84
2022/03/18 02:32:29;;;;;;;;;;;;;;;;;;5073191;28;19935;-84
2022/03/18 02:34:56;;;;;;;;;;;;;;;;;;5055145;28;19928;-84
2022/03/18 02:37:22;;;;;;;;;;;;;;;;;;5069843;28;20630;-84
2022/03/18 02:39:54;;;;;;;;;;;;;;;;;;5056361;28;19939;-84
2022/03/18 02:42:21;;;;;;;;;;;;;;;;;;5051849;28;19921;-84
2022/03/18 02:44:49;;;;;;;;;;;;;;;;;;5069016;28;19923;-84
2022/03/18 02:47:16;;;;;;;;;;;;;;;;;;5072783;28;19924;-84
2022/03/18 02:49:43;;;;;;;;;;;;;;;;;;5070671;28;19928;-84
2022/03/18 02:52:10;;;;;;;;;;;;;;;;;;5054297;28;19924;-84
2022/03/18 02:54:38;;;;;;;;;;;;;;;;;;5053380;28;19928;-84
2022/03/18 02:57:06;;;;;;;;;;;;;;;;;;5071153;28;19927;-84
2022/03/18 02:59:33;;;;;;;;;;;;;;;;;;5072087;28;19939;-83
2022/03/18 03:02:19;;;;;;;;;;;;;;;;;;5032989;28;19935;-84
2022/03/18 03:10:17;;;;;;;;;;;;;;;;;;4996461;28;19929;-84
2022/03/18 03:12:45;;;;;;;;;;;;;;;;;;4982911;28;20466;-84
2022/03/18 03:15:12;;;;;;;;;;;;;;;;;;4982015;28;20098;-84
2022/03/18 03:17:39;;;;;;;;;;;;;;;;;;4982843;28;19959;-84
2022/03/18 03:20:09;;;;;;;;;;;;;;;;;;4981226;28;19998;-84
2022/03/18 03:22:36;;;;;;;;;;;;;;;;;;4983203;28;19925;-84
2022/03/18 03:25:03;;;;;;;;;;;;;;;;;;4974876;28;20102;-83
2022/03/18 03:27:33;;;;;;;;;;;;;;;;;;4971976;28;19926;-84
2022/03/18 03:30:00;;;;;;;;;;;;;;;;;;4988344;28;19925;-84
2022/03/18 03:32:27;;;;;;;;;;;;;;;;;;4978326;28;20097;-84
2022/03/18 03:35:08;;;;;;;;;;;;;;;;;;4971129;28;19929;-84
2022/03/18 03:37:40;;;;;;;;;;;;;;;;;;4957483;28;19932;-84
2022/03/18 03:40:08;;;;;;;;;;;;;;;;;;4948324;28;19930;-84
2022/03/18 03:42:35;;;;;;;;;;;;;;;;;;4941647;28;19926;-84
2022/03/18 03:45:02;;;;;;;;;;;;;;;;;;4923800;28;19937;-83
2022/03/18 03:47:44;;;;;;;;;;;;;;;;;;4931085;28;19931;-84
2022/03/18 03:50:27;;;;;;;;;;;;;;;;;;4933176;28;19982;-84
2022/03/18 03:52:54;;;;;;;;;;;;;;;;;;4925204;28;19922;-83
2022/03/18 03:55:21;;;;;;;;;;;;;;;;;;4909296;28;20012;-84
2022/03/18 03:57:48;;;;;;;;;;;;;;;;;;4941888;28;19927;-84
2022/03/18 04:00:16;;;;;;;;;;;;;;;;;;4908572;28;19926;-83
2022/03/18 04:03:01;;;;;;;;;;;;;;;;;;4920777;29;19923;-84
2022/03/18 04:05:30;;;;;;;;;;;;;;;;;;4889616;29;19931;-83
2022/03/18 04:07:57;;;;;;;;;;;;;;;;;;4909641;29;19942;-84
2022/03/18 04:10:25;;;;;;;;;;;;;;;;;;4941672;28;20301;-84
2022/03/18 04:12:55;;;;;;;;;;;;;;;;;;4963016;28;19930;-84
2022/03/18 04:15:23;;;;;;;;;;;;;;;;;;4968172;28;20075;-84
2022/03/18 04:17:50;;;;;;;;;;;;;;;;;;4965367;28;19926;-84
2022/03/18 04:20:17;;;;;;;;;;;;;;;;;;4979433;28;19933;-84
2022/03/18 04:22:59;;;;;;;;;;;;;;;;;;4995306;28;19926;-84
2022/03/18 04:25:27;;;;;;;;;;;;;;;;;;4975526;28;19976;-84
2022/03/18 04:27:53;;;;;;;;;;;;;;;;;;4977520;28;19929;-84
2022/03/18 04:30:20;;;;;;;;;;;;;;;;;;4980776;28;20411;-84
2022/03/18 04:32:47;;;;;;;;;;;;;;;;;;4974916;28;19926;-84
2022/03/18 04:35:15;;;;;;;;;;;;;;;;;;4995886;28;19954;-84
2022/03/18 04:37:42;;;;;;;;;;;;;;;;;;5013203;28;19925;-84
2022/03/18 04:40:08;;;;;;;;;;;;;;;;;;5007176;28;20824;-84
2022/03/18 04:42:45;;;;;;;;;;;;;;;;;;5048877;28;20728;-84
2022/03/18 04:45:16;;;;;;;;;;;;;;;;;;5048707;28;19928;-84
2022/03/18 04:47:58;;;;;;;;;;;;;;;;;;5011021;28;19932;-84
2022/03/18 04:50:25;;;;;;;;;;;;;;;;;;5011515;28;20019;-84
2022/03/18 04:52:53;;;;;;;;;;;;;;;;;;5030577;28;19998;-84
2022/03/18 04:55:20;;;;;;;;;;;;;;;;;;5052309;28;20122;-84
2022/03/18 04:57:53;;;;;;;;;;;;;;;;;;5051780;28;20689;-85
2022/03/18 05:00:24;;;;;;;;;;;;;;;;;;5048732;28;19928;-85
2022/03/18 05:02:51;;;;;;;;;;;;;;;;;;5069389;28;19920;-85
2022/03/18 05:05:20;;;;;;;;;;;;;;;;;;5051019;28;19928;-85
2022/03/18 05:07:47;;;;;;;;;;;;;;;;;;5063970;28;19930;-84
2022/03/18 05:10:14;;;;;;;;;;;;;;;;;;5052839;28;19940;-85
2022/03/18 05:12:41;;;;;;;;;;;;;;;;;;5036582;28;20013;-84
2022/03/18 05:15:08;;;;;;;;;;;;;;;;;;5046465;28;20285;-85
2022/03/18 05:17:57;;;;;;;;;;;;;;;;;;5067792;28;19970;-84
2022/03/18 05:20:24;;;;;;;;;;;;;;;;;;5070464;28;19930;-84
2022/03/18 05:22:51;;;;;;;;;;;;;;;;;;5065472;28;19928;-84
2022/03/18 05:25:17;;;;;;;;;;;;;;;;;;5073317;28;20046;-84
2022/03/18 05:27:44;;;;;;;;;;;;;;;;;;5051216;28;19931;-84
2022/03/18 05:30:11;;;;;;;;;;;;;;;;;;5070944;28;20293;-84
2022/03/18 05:32:40;;;;;;;;;;;;;;;;;;5053521;28;19928;-85
2022/03/18 05:35:05;;;;;;;;;;;;;;;;;;5070639;28;19924;-84
2022/03/18 05:37:33;;;;;;;;;;;;;;;;;;5068775;28;19935;-85
2022/03/18 05:39:59;;;;;;;;;;;;;;;;;;5062395;28;19932;-84
2022/03/18 05:42:26;;;;;;;;;;;;;;;;;;5066028;28;19939;-84
2022/03/18 05:44:54;;;;;;;;;;;;;;;;;;5067881;28;20329;-84
2022/03/18 05:47:21;;;;;;;;;;;;;;;;;;5054493;28;20374;-84
2022/03/18 05:49:47;;;;;;;;;;;;;;;;;;5069278;28;19930;-84
2022/03/18 05:52:14;;;;;;;;;;;;;;;;;;5054061;28;19935;-84
2022/03/18 05:54:42;;;;;;;;;;;;;;;;;;5057556;28;19920;-84
2022/03/18 05:57:11;;;;;;;;;;;;;;;;;;5053828;28;19977;-84
2022/03/18 05:59:41;;;;;;;;;;;;;;;;;;5077075;28;19924;-84
2022/03/18 06:02:08;;;;;;;;;;;;;;;;;;5061003;28;19932;-84
2022/03/18 06:04:35;;;;;;;;;;;;;;;;;;5065638;28;19924;-84
2022/03/18 06:07:16;;;;;;;;;;;;;;;;;;5055601;28;20015;-84
2022/03/18 06:12:31;;;;;;;;;;;;;;;;;;5040895;28;19987;-84
2022/03/18 06:15:14;;;;;;;;;;;;;;;;;;5004668;28;19974;-84
2022/03/18 06:17:41;;;;;;;;;;;;;;;;;;4986158;28;20859;-84
2022/03/18 06:20:08;;;;;;;;;;;;;;;;;;5000534;28;20012;-85
2022/03/18 06:22:45;;;;;;;;;;;;;;;;;;5001168;28;19925;-85
2022/03/18 06:25:12;;;;;;;;;;;;;;;;;;4991687;28;19925;-84
2022/03/18 06:27:39;;;;;;;;;;;;;;;;;;4994908;28;20543;-84
2022/03/18 06:30:06;;;;;;;;;;;;;;;;;;4968898;28;19929;-84
2022/03/18 06:32:34;;;;;;;;;;;;;;;;;;4985077;28;19929;-84
2022/03/18 06:38:17;;;;;;;;;;;;;;;;;;4871681;29;20456;-84
2022/03/18 06:47:55;;;;;;;;;;;;;;;;;;;;;
2022/03/18 07:12:29;;;;;;;;;;;;;;;;;;4780059;29;19941;-84
2022/03/18 07:15:14;;;;;;;;;;;;;;;;;;4854468;29;19966;-84
2022/03/18 07:17:55;;;;;;;;;;;;;;;;;;4878151;29;19924;-84
2022/03/18 07:20:25;;;;;;;;;;;;;;;;;;4876427;29;19947;-85
2022/03/18 07:22:52;;;;;;;;;;;;;;;;;;4877581;29;19928;-84
2022/03/18 07:25:19;;;;;;;;;;;;;;;;;;4881411;29;19927;-84
2022/03/18 07:27:47;;;;;;;;;;;;;;;;;;4938610;28;19930;-84
2022/03/18 07:30:14;;;;;;;;;;;;;;;;;;4953799;28;20321;-84
2022/03/18 07:32:41;;;;;;;;;;;;;;;;;;4963412;28;20412;-85
2022/03/18 07:35:14;;;;;;;;;;;;;;;;;;4990782;28;20023;-85
2022/03/18 07:37:41;;;;;;;;;;;;;;;;;;5065056;28;19955;-84
2022/03/18 07:40:22;;;;;;;;;;;;;;;;;;5082075;28;20005;-84
2022/03/18 07:42:55;;;;;;;;;;;;;;;;;;5072570;28;19932;-84
2022/03/18 07:45:22;;;;;;;;;;;;;;;;;;5071686;28;19960;-84
2022/03/18 07:47:50;;;;;;;;;;;;;;;;;;5080829;28;20378;-84
2022/03/18 07:50:19;;;;;;;;;;;;;;;;;;5056805;28;19931;-84
2022/03/18 07:52:46;;;;;;;;;;;;;;;;;;5071372;28;20027;-84
2022/03/18 07:55:14;;;;;;;;;;;;;;;;;;5073140;28;19928;-84
2022/03/18 07:57:42;;;;;;;;;;;;;;;;;;5060122;28;19924;-85
2022/03/18 08:00:18;;;;;;;;;;;;;;;;;;5084084;28;19938;-85
2022/03/18 08:02:45;;;;;;;;;;;;;;;;;;5061334;28;19923;-85
2022/03/18 08:05:11;;;;;;;;;;;;;;;;;;5061002;28;19943;-85
2022/03/18 08:07:39;;;;;;;;;;;;;;;;;;5075510;28;19974;-85
2022/03/18 08:10:06;;;;;;;;;;;;;;;;;;5071017;28;19945;-85
2022/03/18 08:12:34;;;;;;;;;;;;;;;;;;5076202;28;19998;-84
2022/03/18 08:15:16;;;;;;;;;;;;;;;;;;5042527;28;20341;-85
2022/03/18 08:17:42;;;;;;;;;;;;;;;;;;5022330;28;20554;-85
2022/03/18 08:20:28;;;;;;;;;;;;;;;;;;5058146;28;19975;-84
2022/03/18 08:22:56;;;;;;;;;;;;;;;;;;5028910;28;20394;-85
2022/03/18 08:25:22;;;;;;;;;;;;;;;;;;5022140;28;19925;-85
2022/03/18 08:27:49;;;;;;;;;;;;;;;;;;5005631;28;19932;-85
2022/03/18 08:30:25;;;;;;;;;;;;;;;;;;5019321;28;20015;-84
2022/03/18 08:32:53;;;;;;;;;;;;;;;;;;5007084;28;19960;-85
2022/03/18 08:35:20;;;;;;;;;;;;;;;;;;5019028;28;19921;-85
2022/03/18 08:38:00;;;;;;;;;;;;;;;;;;5008501;28;19934;-84
2022/03/18 08:40:45;;;;;;;;;;;;;;;;;;4964296;28;19930;-85
2022/03/18 08:43:29;;;;;;;;;;;;;;;;;;4910779;29;21321;-85
2022/03/18 08:46:03;;;;;;;;;;;;;;;;;;4935444;28;19937;-85
2022/03/18 08:48:30;;;;;;;;;;;;;;;;;;4928449;29;19926;-85
2022/03/18 08:50:57;;;;;;;;;;;;;;;;;;4929555;28;20015;-85
2022/03/18 08:53:23;;;;;;;;;;;;;;;;;;4928624;28;19922;-85
2022/03/18 08:55:56;;;;;;;;;;;;;;;;;;4941546;28;20513;-84
2022/03/18 08:58:24;;;;;;;;;;;;;;;;;;4999442;28;19926;-84
2022/03/18 09:00:52;;;;;;;;;;;;;;;;;;4985211;28;19929;-85
2022/03/18 09:03:20;;;;;;;;;;;;;;;;;;4999929;28;19964;-84
2022/03/18 09:05:47;;;;;;;;;;;;;;;;;;4983564;28;19929;-84
2022/03/18 09:08:14;;;;;;;;;;;;;;;;;;4980537;28;19969;-85
2022/03/18 09:10:42;;;;;;;;;;;;;;;;;;4970465;28;19922;-85
2022/03/18 09:13:09;;;;;;;;;;;;;;;;;;5047717;28;19925;-85
2022/03/18 09:15:36;;;;;;;;;;;;;;;;;;5059162;28;19924;-85
2022/03/18 09:18:02;;;;;;;;;;;;;;;;;;5063594;28;20046;-85
2022/03/18 09:20:29;;;;;;;;;;;;;;;;;;5071400;28;20011;-86
2022/03/18 09:22:57;;;;;;;;;;;;;;;;;;5074895;28;19951;-85
2022/03/18 09:25:24;;;;;;;;;;;;;;;;;;5056794;28;20501;-85
2022/03/18 09:27:51;;;;;;;;;;;;;;;;;;5064395;28;19997;-85
2022/03/18 09:30:18;;;;;;;;;;;;;;;;;;5062466;28;19971;-85
2022/03/18 09:32:55;;;;;;;;;;;;;;;;;;5079592;28;19970;-86
2022/03/18 09:35:23;;;;;;;;;;;;;;;;;;5064400;28;19986;-86
2022/03/18 09:37:51;;;;;;;;;;;;;;;;;;5074889;28;19928;-85
2022/03/18 09:40:18;;;;;;;;;;;;;;;;;;5077129;28;24775;-85
2022/03/18 09:43:05;;;;;;;;;;;;;;;;;;5062390;28;20795;-85
2022/03/18 09:45:33;;;;;;;;;;;;;;;;;;5047987;28;20010;-85
2022/03/18 09:48:03;;;;;;;;;;;;;;;;;;5062132;28;19927;-85
2022/03/18 09:50:30;;;;;;;;;;;;;;;;;;5048528;28;19920;-86
2022/03/18 09:52:56;;;;;;;;;;;;;;;;;;5052116;28;20010;-85
2022/03/18 09:55:27;;;;;;;;;;;;;;;;;;5081722;28;19931;-85
2022/03/18 09:57:54;;;;;;;;;;;;;;;;;;5065871;28;20290;-85
2022/03/18 10:00:21;;;;;;;;;;;;;;;;;;5050522;28;19975;-85
2022/03/18 10:02:49;;;;;;;;;;;;;;;;;;5055370;28;19935;-85
2022/03/18 10:05:16;;;;;;;;;;;;;;;;;;5060963;28;19920;-85
2022/03/18 10:07:43;;;;;;;;;;;;;;;;;;5055888;28;19967;-85
2022/03/18 10:10:17;;;;;;;;;;;;;;;;;;5062924;28;19921;-85
2022/03/18 10:12:45;;;;;;;;;;;;;;;;;;5065713;28;19928;-85
2022/03/18 10:15:11;;;;;;;;;;;;;;;;;;5069737;28;20011;-86
2022/03/18 10:17:38;;;;;;;;;;;;;;;;;;5071018;28;19924;-85
2022/03/18 10:20:06;;;;;;;;;;;;;;;;;;5068062;28;19931;-85
2022/03/18 10:22:32;;;;;;;;;;;;;;;;;;5069522;28;20404;-85
2022/03/18 10:25:17;;;;;;;;;;;;;;;;;;5068467;28;19935;-85
2022/03/18 10:27:44;;;;;;;;;;;;;;;;;;5059137;28;20007;-85
2022/03/18 10:30:11;;;;;;;;;;;;;;;;;;5071864;28;19950;-86
2022/03/18 10:32:42;;;;;;;;;;;;;;;;;;5085590;28;19920;-86
2022/03/18 10:38:29;;;;;;;;;;;;;;;;;;4973381;28;19985;-85
2022/03/18 10:40:55;;;;;;;;;;;;;;;;;;4991685;28;19930;-85
2022/03/18 10:43:22;;;;;;;;;;;;;;;;;;4953563;28;20377;-85
2022/03/18 10:45:50;;;;;;;;;;;;;;;;;;4958966;28;20047;-86
2022/03/18 10:48:17;;;;;;;;;;;;;;;;;;4956362;28;20365;-85
2022/03/18 10:50:45;;;;;;;;;;;;;;;;;;4963050;28;20366;-85
2022/03/18 10:53:41;;;;;;;;;;;;;;;;;;4929483;29;19978;-85
2022/03/18 10:56:20;;;;;;;;;;;;;;;;;;4927854;28;20390;-85
2022/03/18 10:58:47;;;;;;;;;;;;;;;;;;4911694;29;20534;-85
2022/03/18 11:01:14;;;;;;;;;;;;;;;;;;4944151;28;19927;-85
2022/03/18 11:03:42;;;;;;;;;;;;;;;;;;4928346;29;19922;-85
2022/03/18 11:06:10;;;;;;;;;;;;;;;;;;4912602;28;19931;-85
2022/03/18 11:08:37;;;;;;;;;;;;;;;;;;4945615;28;20020;-85
2022/03/18 11:11:20;;;;;;;;;;;;;;;;;;4977015;28;20258;-85
2022/03/18 11:14:00;;;;;;;;;;;;;;;;;;5019781;28;19929;-86
2022/03/18 11:16:27;;;;;;;;;;;;;;;;;;5028722;28;19920;-85
2022/03/18 11:18:56;;;;;;;;;;;;;;;;;;5026912;28;19925;-86
2022/03/18 11:21:35;;;;;;;;;;;;;;;;;;5023632;28;19921;-86
2022/03/18 11:24:11;;;;;;;;;;;;;;;;;;5022523;28;20024;-85
2022/03/18 11:26:40;;;;;;;;;;;;;;;;;;5029471;28;19927;-86
2022/03/18 11:29:07;;;;;;;;;;;;;;;;;;5022442;28;19983;-86
2022/03/18 11:31:34;;;;;;;;;;;;;;;;;;5024146;28;20363;-86
2022/03/18 11:34:11;;;;;;;;;;;;;;;;;;5046523;28;19931;-85
2022/03/18 11:36:38;;;;;;;;;;;;;;;;;;5023402;28;20335;-86
2022/03/18 11:39:06;;;;;;;;;;;;;;;;;;5027017;28;19948;-86
2022/03/18 11:41:34;;;;;;;;;;;;;;;;;;5029505;28;20438;-86
2022/03/18 11:44:03;;;;;;;;;;;;;;;;;;5037488;28;20413;-86
2022/03/18 11:46:31;;;;;;;;;;;;;;;;;;5081035;28;19924;-85
2022/03/18 11:49:01;;;;;;;;;;;;;;;;;;5088933;28;19924;-86
2022/03/18 11:51:35;;;;;;;;;;;;;;;;;;5092769;28;19930;-86
2022/03/18 11:54:03;;;;;;;;;;;;;;;;;;5099822;28;19920;-85
2022/03/18 11:56:30;;;;;;;;;;;;;;;;;;5082777;28;19924;-86
2022/03/18 11:59:01;;;;;;;;;;;;;;;;;;5098015;28;19927;-85
2022/03/18 12:01:28;;;;;;;;;;;;;;;;;;5090226;28;19932;-85
2022/03/18 12:03:57;;;;;;;;;;;;;;;;;;5091550;28;19927;-86
2022/03/18 12:06:26;;;;;;;;;;;;;;;;;;5073458;28;19963;-86
2022/03/18 12:09:12;;;;;;;;;;;;;;;;;;5079311;28;19965;-86
2022/03/18 12:11:39;;;;;;;;;;;;;;;;;;5053121;28;20379;-85
2022/03/18 12:14:08;;;;;;;;;;;;;;;;;;5075467;28;20415;-86
2022/03/18 12:16:35;;;;;;;;;;;;;;;;;;5075447;28;19931;-86
2022/03/18 12:19:22;;;;;;;;;;;;;;;;;;5023885;28;20428;-86
2022/03/18 12:21:50;;;;;;;;;;;;;;;;;;5027390;28;19925;-86
2022/03/18 12:24:17;;;;;;;;;;;;;;;;;;5040940;28;20569;-86
2022/03/18 12:26:45;;;;;;;;;;;;;;;;;;5029100;28;19932;-86
2022/03/18 12:29:12;;;;;;;;;;;;;;;;;;5042010;28;20012;-86
2022/03/18 12:31:39;;;;;;;;;;;;;;;;;;5021030;28;19964;-85
2022/03/18 12:34:09;;;;;;;;;;;;;;;;;;5043308;28;19925;-86
2022/03/18 12:36:39;;;;;;;;;;;;;;;;;;5043008;28;19925;-85
2022/03/18 12:39:06;;;;;;;;;;;;;;;;;;5043871;28;19928;-86
2022/03/18 12:41:32;;;;;;;;;;;;;;;;;;5048498;28;19986;-85
2022/03/18 12:43:59;;;;;;;;;;;;;;;;;;5021757;28;19928;-86
2022/03/18 12:46:25;;;;;;;;;;;;;;;;;;5024917;28;19924;-86
2022/03/18 12:48:53;;;;;;;;;;;;;;;;;;5006733;28;20751;-86
2022/03/18 12:51:21;;;;;;;;;;;;;;;;;;5026579;28;19921;-86
2022/03/18 12:53:48;;;;;;;;;;;;;;;;;;5024491;28;19948;-86
2022/03/18 12:56:22;;;;;;;;;;;;;;;;;;5014351;28;19929;-86
2022/03/18 12:58:49;;;;;;;;;;;;;;;;;;5046123;28;19966;-86
2022/03/18 13:01:16;;;;;;;;;;;;;;;;;;5022890;28;19933;-85
2022/03/18 13:03:44;;;;;;;;;;;;;;;;;;5076253;28;19920;-85
2022/03/18 13:06:18;;;;;;;;;;;;;;;;;;5071560;28;19920;-86
2022/03/18 13:08:47;;;;;;;;;;;;;;;;;;5094039;28;20370;-86
2022/03/18 13:11:17;;;;;;;;;;;;;;;;;;5081060;28;19928;-85
2022/03/18 13:13:43;;;;;;;;;;;;;;;;;;5077627;28;20342;-85
2022/03/18 13:16:25;;;;;;;;;;;;;;;;;;5030765;28;19921;-85
2022/03/18 13:18:53;;;;;;;;;;;;;;;;;;5041046;28;19932;-86
2022/03/18 13:21:20;;;;;;;;;;;;;;;;;;5027948;28;19925;-86
2022/03/18 13:24:02;;;;;;;;;;;;;;;;;;5002156;28;19925;-85
2022/03/18 13:26:29;;;;;;;;;;;;;;;;;;5010973;28;19925;-85
2022/03/18 13:29:02;;;;;;;;;;;;;;;;;;5008111;28;20426;-86
2022/03/18 13:34:20;;;;;;;;;;;;;;;;;;4989787;28;20036;-86
2022/03/18 13:36:45;;;;;;;;;;;;;;;;;;4992393;28;20277;-86
2022/03/18 13:39:13;;;;;;;;;;;;;;;;;;4988410;28;20005;-85
2022/03/18 13:41:39;;;;;;;;;;;;;;;;;;4987676;28;19936;-86
2022/03/18 13:44:06;;;;;;;;;;;;;;;;;;4986957;28;19937;-86
2022/03/18 13:46:33;;;;;;;;;;;;;;;;;;4995921;28;19926;-85
2022/03/18 13:49:03;;;;;;;;;;;;;;;;;;5043301;28;19920;-86
2022/03/18 13:51:30;;;;;;;;;;;;;;;;;;5044675;28;20440;-85
2022/03/18 13:53:57;;;;;;;;;;;;;;;;;;5025434;28;19935;-85
2022/03/18 13:56:34;;;;;;;;;;;;;;;;;;5088124;28;19924;-85
2022/03/18 13:59:01;;;;;;;;;;;;;;;;;;5090999;28;19928;-85
2022/03/18 14:01:29;;;;;;;;;;;;;;;;;;5061753;28;19935;-85
2022/03/18 14:04:00;;;;;;;;;;;;;;;;;;5095057;28;19954;-85
2022/03/18 14:06:26;;;;;;;;;;;;;;;;;;5100278;28;19927;-86
2022/03/18 14:08:54;;;;;;;;;;;;;;;;;;5091653;28;20491;-86
2022/03/18 14:14:10;;;;;;;;;;;;;;;;;;5086964;28;19931;-85
2022/03/18 14:16:37;;;;;;;;;;;;;;;;;;5082328;28;19924;-86
2022/03/18 14:19:04;;;;;;;;;;;;;;;;;;5098747;28;20285;-85
2022/03/18 14:21:31;;;;;;;;;;;;;;;;;;5076224;28;19920;-86
2022/03/18 14:23:57;;;;;;;;;;;;;;;;;;5086019;28;19984;-85
2022/03/18 14:26:25;;;;;;;;;;;;;;;;;;5056612;28;19928;-84
2022/03/18 14:28:52;;;;;;;;;;;;;;;;;;5058677;28;19963;-85
2022/03/18 14:31:20;;;;;;;;;;;;;;;;;;5083563;28;19924;-85
2022/03/18 14:33:47;;;;;;;;;;;;;;;;;;5058835;28;21135;-85
2022/03/18 14:36:31;;;;;;;;;;;;;;;;;;5054822;28;19928;-85
2022/03/18 14:39:02;;;;;;;;;;;;;;;;;;5045424;28;19928;-84
2022/03/18 14:41:29;;;;;;;;;;;;;;;;;;5051192;28;19928;-84
2022/03/18 14:43:56;;;;;;;;;;;;;;;;;;5044561;28;19924;-84
2022/03/18 14:46:45;;;;;;;;;;;;;;;;;;5051236;28;20724;-84
2022/03/18 14:49:12;;;;;;;;;;;;;;;;;;5059685;28;19947;-84
2022/03/18 14:51:39;;;;;;;;;;;;;;;;;;5050298;28;19978;-87
2022/03/18 14:54:06;;;;;;;;;;;;;;;;;;5028228;28;19924;-86
2022/03/18 14:56:40;;;;;;;;;;;;;;;;;;5043486;28;20010;-84
2022/03/18 14:59:07;;;;;;;;;;;;;;;;;;5062229;28;20290;-84
2022/03/18 15:01:35;;;;;;;;;;;;;;;;;;5058404;28;19993;-85
2022/03/18 15:04:05;;;;;;;;;;;;;;;;;;5028564;28;19928;-84
2022/03/18 15:06:33;;;;;;;;;;;;;;;;;;5049197;28;19939;-81
2022/03/18 15:09:00;;;;;;;;;;;;;;;;;;5076605;28;19924;-83
2022/03/18 15:11:37;;;;;;;;;;;;;;;;;;5081849;28;19924;-84
2022/03/18 15:14:05;;;;;;;;;;;;;;;;;;5079640;28;19920;-84
2022/03/18 15:16:32;;;;;;;;;;;;;;;;;;5079921;28;19921;-83
2022/03/18 15:18:59;;;;;;;;;;;;;;;;;;5082652;28;20375;-84
2022/03/18 15:21:26;;;;;;;;;;;;;;;;;;5064026;28;19931;-84
2022/03/18 15:24:08;;;;;;;;;;;;;;;;;;5068690;28;19923;-84
2022/03/18 15:26:42;;;;;;;;;;;;;;;;;;5038532;28;19935;-84
2022/03/18 15:29:08;;;;;;;;;;;;;;;;;;5068549;28;19943;-84
2022/03/18 15:31:41;;;;;;;;;;;;;;;;;;5052651;28;20758;-83
2022/03/18 15:34:10;;;;;;;;;;;;;;;;;;5069748;28;19928;-84
2022/03/18 15:36:46;;;;;;;;;;;;;;;;;;5056718;28;19928;-84
2022/03/18 15:39:13;;;;;;;;;;;;;;;;;;5042088;28;19928;-85
2022/03/18 15:41:51;;;;;;;;;;;;;;;;;;5074143;28;19975;-84
2022/03/18 15:44:27;;;;;;;;;;;;;;;;;;5059035;28;19920;-84
2022/03/18 15:46:53;;;;;;;;;;;;;;;;;;5040917;28;19928;-85
2022/03/18 15:49:40;;;;;;;;;;;;;;;;;;5069434;28;19923;-85
2022/03/18 15:52:11;;;;;;;;;;;;;;;;;;5043679;28;20020;-85
2022/03/18 15:54:39;;;;;;;;;;;;;;;;;;5062417;28;19927;-85
2022/03/18 15:57:06;;;;;;;;;;;;;;;;;;5058586;28;21505;-85
2022/03/18 15:59:48;;;;;;;;;;;;;;;;;;5038958;28;19932;-85
2022/03/18 16:02:17;;;;;;;;;;;;;;;;;;5036936;28;19952;-85
2022/03/18 16:04:54;;;;;;;;;;;;;;;;;;5040483;28;19921;-85
2022/03/18 16:07:20;;;;;;;;;;;;;;;;;;5033067;28;20251;-85
2022/03/18 16:09:48;;;;;;;;;;;;;;;;;;5038213;28;19939;-85
2022/03/18 16:12:15;;;;;;;;;;;;;;;;;;5040291;28;19928;-85
2022/03/18 16:15:02;;;;;;;;;;;;;;;;;;4998253;28;19925;-85
2022/03/18 16:17:33;;;;;;;;;;;;;;;;;;4997485;28;19924;-85
2022/03/18 16:20:00;;;;;;;;;;;;;;;;;;5002598;28;20363;-85
2022/03/18 16:22:31;;;;;;;;;;;;;;;;;;4994109;28;20447;-86
2022/03/18 16:24:56;;;;;;;;;;;;;;;;;;5007426;28;20035;-85
2022/03/18 16:27:24;;;;;;;;;;;;;;;;;;4993940;28;19944;-85
2022/03/18 16:29:51;;;;;;;;;;;;;;;;;;4998149;28;19921;-84
2022/03/18 16:32:18;;;;;;;;;;;;;;;;;;5022603;28;19944;-85
2022/03/18 16:34:45;;;;;;;;;;;;;;;;;;5039988;28;19928;-85
2022/03/18 16:37:28;;;;;;;;;;;;;;;;;;5058796;28;19974;-85
2022/03/18 16:39:54;;;;;;;;;;;;;;;;;;5040015;28;19951;-85
2022/03/18 16:42:40;;;;;;;;;;;;;;;;;;5042325;28;20117;-84
2022/03/18 16:45:11;;;;;;;;;;;;;;;;;;5057727;28;19932;-85
2022/03/18 16:50:25;;;;;;;;;;;;;;;;;;5041573;28;19936;-84
2022/03/18 16:52:52;;;;;;;;;;;;;;;;;;5039337;28;20264;-85
2022/03/18 16:55:23;;;;;;;;;;;;;;;;;;5036476;28;19933;-84
2022/03/18 16:57:50;;;;;;;;;;;;;;;;;;5034040;28;19979;-85
2022/03/18 17:00:36;;;;;;;;;;;;;;;;;;5049973;28;20418;-85
2022/03/18 17:03:07;;;;;;;;;;;;;;;;;;5019260;28;19939;-85
2022/03/18 17:05:37;;;;;;;;;;;;;;;;;;5067856;28;20009;-84
2022/03/18 17:08:04;;;;;;;;;;;;;;;;;;5072394;28;20014;-84
2022/03/18 17:10:49;;;;;;;;;;;;;;;;;;5036797;28;20079;-84
2022/03/18 17:13:16;;;;;;;;;;;;;;;;;;5019221;28;20011;-84
2022/03/18 17:15:42;;;;;;;;;;;;;;;;;;5020400;28;19943;-85
2022/03/18 17:18:08;;;;;;;;;;;;;;;;;;5020679;28;19925;-85
2022/03/18 17:20:41;;;;;;;;;;;;;;;;;;5020575;28;20460;-85
2022/03/18 17:23:10;;;;;;;;;;;;;;;;;;5019798;28;19982;-84
2022/03/18 17:25:40;;;;;;;;;;;;;;;;;;5034837;28;19979;-85
2022/03/18 17:28:10;;;;;;;;;;;;;;;;;;5014604;28;19972;-84
2022/03/18 17:30:38;;;;;;;;;;;;;;;;;;5018111;28;19968;-85
2022/03/18 17:33:05;;;;;;;;;;;;;;;;;;5038599;28;19975;-84
2022/03/18 17:35:33;;;;;;;;;;;;;;;;;;5025029;28;19931;-84
2022/03/18 17:38:00;;;;;;;;;;;;;;;;;;5023197;28;20332;-85
2022/03/18 17:40:26;;;;;;;;;;;;;;;;;;5019161;28;20007;-85
2022/03/18 17:43:07;;;;;;;;;;;;;;;;;;5054070;28;19924;-85
2022/03/18 17:45:35;;;;;;;;;;;;;;;;;;5020890;28;20311;-86
2022/03/18 17:48:01;;;;;;;;;;;;;;;;;;5019732;28;24267;-85
2022/03/18 17:50:45;;;;;;;;;;;;;;;;;;5015511;28;20037;-85
2022/03/18 17:53:16;;;;;;;;;;;;;;;;;;5015731;28;19925;-84
2022/03/18 17:56:02;;;;;;;;;;;;;;;;;;4924585;28;19931;-86
2022/03/18 17:58:30;;;;;;;;;;;;;;;;;;4910310;29;20341;-86
2022/03/18 18:01:02;;;;;;;;;;;;;;;;;;4937567;28;19977;-85